sensor_id;sensor_type;location;lat;lon;timestamp;P1;durP1;ratioP1;P2;durP2;ratioP2
64543;SDS011;50936;51.660;5.616;2023-08-08T00:02:14;2.67;;;1.63;;
64543;SDS011;50936;51.660;5.616;2023-08-08T00:04:41;2.95;;;1.73;;
64543;SDS011;50936;51.660;5.616;2023-08-08T00:07:08;4.70;;;1.83;;
64543;SDS011;50936;51.660;5.616;2023-08-08T00:09:35;3.03;;;1.60;;
64543;SDS011;50936;51.660;5.616;2023-08-08T00:12:02;2.20;;;1.58;;
64543;SDS011;50936;51.660;5.616;2023-08-08T00:14:29;2.65;;;1.40;;
64543;SDS011;50936;51.660;5.616;2023-08-08T00:16:56;2.97;;;1.60;;
64543;SDS011;50936;51.660;5.616;2023-08-08T00:19:23;2.35;;;1.55;;
64543;SDS011;50936;51.660;5.616;2023-08-08T00:21:50;2.90;;;1.58;;
64543;SDS011;50936;51.660;5.616;2023-08-08T00:24:17;2.90;;;1.60;;
64543;SDS011;50936;51.660;5.616;2023-08-08T00:26:44;2.65;;;1.50;;
64543;SDS011;50936;51.660;5.616;2023-08-08T00:29:11;3.60;;;1.70;;
64543;SDS011;50936;51.660;5.616;2023-08-08T00:31:39;2.97;;;1.80;;
64543;SDS011;50936;51.660;5.616;2023-08-08T00:34:06;2.83;;;1.60;;
64543;SDS011;50936;51.660;5.616;2023-08-08T00:36:32;3.45;;;1.65;;
64543;SDS011;50936;51.660;5.616;2023-08-08T00:39:00;2.20;;;1.40;;
64543;SDS011;50936;51.660;5.616;2023-08-08T00:41:28;3.38;;;1.40;;
64543;SDS011;50936;51.660;5.616;2023-08-08T00:43:54;3.33;;;1.60;;
64543;SDS011;50936;51.660;5.616;2023-08-08T00:46:22;2.95;;;1.42;;
64543;SDS011;50936;51.660;5.616;2023-08-08T00:48:54;2.53;;;1.52;;
64543;SDS011;50936;51.660;5.616;2023-08-08T00:51:21;2.65;;;1.45;;
64543;SDS011;50936;51.660;5.616;2023-08-08T00:53:50;3.10;;;1.70;;
64543;SDS011;50936;51.660;5.616;2023-08-08T00:56:19;2.50;;;1.58;;
64543;SDS011;50936;51.660;5.616;2023-08-08T00:58:46;2.28;;;1.58;;
64543;SDS011;50936;51.660;5.616;2023-08-08T01:01:13;3.47;;;1.70;;
64543;SDS011;50936;51.660;5.616;2023-08-08T01:03:40;4.00;;;1.65;;
64543;SDS011;50936;51.660;5.616;2023-08-08T01:06:16;2.53;;;1.40;;
64543;SDS011;50936;51.660;5.616;2023-08-08T01:08:58;3.38;;;1.67;;
64543;SDS011;50936;51.660;5.616;2023-08-08T01:11:35;3.28;;;1.65;;
64543;SDS011;50936;51.660;5.616;2023-08-08T01:14:04;2.65;;;1.58;;
64543;SDS011;50936;51.660;5.616;2023-08-08T01:16:35;2.17;;;1.40;;
64543;SDS011;50936;51.660;5.616;2023-08-08T01:19:04;3.40;;;1.70;;
64543;SDS011;50936;51.660;5.616;2023-08-08T01:21:35;3.22;;;1.70;;
64543;SDS011;50936;51.660;5.616;2023-08-08T01:26:49;2.95;;;1.52;;
64543;SDS011;50936;51.660;5.616;2023-08-08T01:29:16;4.10;;;1.65;;
64543;SDS011;50936;51.660;5.616;2023-08-08T01:31:43;2.97;;;1.45;;
64543;SDS011;50936;51.660;5.616;2023-08-08T01:34:10;2.78;;;1.60;;
64543;SDS011;50936;51.660;5.616;2023-08-08T01:36:42;2.75;;;1.60;;
64543;SDS011;50936;51.660;5.616;2023-08-08T01:39:17;2.00;;;1.40;;
64543;SDS011;50936;51.660;5.616;2023-08-08T01:41:52;3.90;;;1.58;;
64543;SDS011;50936;51.660;5.616;2023-08-08T01:44:21;3.50;;;1.55;;
64543;SDS011;50936;51.660;5.616;2023-08-08T01:46:51;2.40;;;1.50;;
64543;SDS011;50936;51.660;5.616;2023-08-08T01:49:19;2.75;;;1.70;;
64543;SDS011;50936;51.660;5.616;2023-08-08T01:51:46;2.83;;;1.52;;
64543;SDS011;50936;51.660;5.616;2023-08-08T01:54:15;3.22;;;1.83;;
64543;SDS011;50936;51.660;5.616;2023-08-08T01:56:42;2.58;;;1.63;;
64543;SDS011;50936;51.660;5.616;2023-08-08T01:59:08;4.00;;;1.80;;
64543;SDS011;50936;51.660;5.616;2023-08-08T02:01:36;2.50;;;1.67;;
64543;SDS011;50936;51.660;5.616;2023-08-08T02:04:04;3.17;;;1.67;;
64543;SDS011;50936;51.660;5.616;2023-08-08T02:06:31;3.67;;;1.73;;
64543;SDS011;50936;51.660;5.616;2023-08-08T02:08:58;3.75;;;1.65;;
64543;SDS011;50936;51.660;5.616;2023-08-08T02:11:26;3.25;;;1.73;;
64543;SDS011;50936;51.660;5.616;2023-08-08T02:13:56;2.70;;;1.65;;
64543;SDS011;50936;51.660;5.616;2023-08-08T02:16:23;2.97;;;1.80;;
64543;SDS011;50936;51.660;5.616;2023-08-08T02:18:50;2.42;;;1.33;;
64543;SDS011;50936;51.660;5.616;2023-08-08T02:21:16;3.08;;;1.52;;
64543;SDS011;50936;51.660;5.616;2023-08-08T02:23:43;2.75;;;1.58;;
64543;SDS011;50936;51.660;5.616;2023-08-08T02:26:10;2.53;;;1.50;;
64543;SDS011;50936;51.660;5.616;2023-08-08T02:28:37;1.92;;;1.33;;
64543;SDS011;50936;51.660;5.616;2023-08-08T02:31:04;3.08;;;1.73;;
64543;SDS011;50936;51.660;5.616;2023-08-08T02:33:31;3.05;;;1.60;;
64543;SDS011;50936;51.660;5.616;2023-08-08T02:35:58;3.83;;;1.60;;
64543;SDS011;50936;51.660;5.616;2023-08-08T02:38:25;2.45;;;1.42;;
64543;SDS011;50936;51.660;5.616;2023-08-08T02:40:52;3.08;;;1.65;;
64543;SDS011;50936;51.660;5.616;2023-08-08T02:43:19;3.13;;;1.50;;
64543;SDS011;50936;51.660;5.616;2023-08-08T02:45:46;2.92;;;1.70;;
64543;SDS011;50936;51.660;5.616;2023-08-08T02:48:13;3.50;;;1.60;;
64543;SDS011;50936;51.660;5.616;2023-08-08T02:50:40;3.00;;;1.40;;
64543;SDS011;50936;51.660;5.616;2023-08-08T02:53:07;2.90;;;1.80;;
64543;SDS011;50936;51.660;5.616;2023-08-08T02:55:39;2.63;;;1.42;;
64543;SDS011;50936;51.660;5.616;2023-08-08T02:58:06;3.63;;;1.60;;
64543;SDS011;50936;51.660;5.616;2023-08-08T03:00:34;2.97;;;1.60;;
64543;SDS011;50936;51.660;5.616;2023-08-08T03:03:01;2.78;;;1.70;;
64543;SDS011;50936;51.660;5.616;2023-08-08T03:05:31;2.90;;;1.63;;
64543;SDS011;50936;51.660;5.616;2023-08-08T03:07:58;3.10;;;1.92;;
64543;SDS011;50936;51.660;5.616;2023-08-08T03:10:26;2.58;;;1.60;;
64543;SDS011;50936;51.660;5.616;2023-08-08T03:12:53;4.32;;;1.75;;
64543;SDS011;50936;51.660;5.616;2023-08-08T03:15:21;4.57;;;1.85;;
64543;SDS011;50936;51.660;5.616;2023-08-08T03:17:48;2.88;;;1.45;;
64543;SDS011;50936;51.660;5.616;2023-08-08T03:20:17;3.55;;;1.80;;
64543;SDS011;50936;51.660;5.616;2023-08-08T03:22:44;4.10;;;2.10;;
64543;SDS011;50936;51.660;5.616;2023-08-08T03:25:11;3.05;;;1.58;;
64543;SDS011;50936;51.660;5.616;2023-08-08T03:27:39;3.25;;;1.58;;
64543;SDS011;50936;51.660;5.616;2023-08-08T03:30:08;3.40;;;1.65;;
64543;SDS011;50936;51.660;5.616;2023-08-08T03:32:40;3.65;;;1.50;;
64543;SDS011;50936;51.660;5.616;2023-08-08T03:35:07;4.30;;;1.80;;
64543;SDS011;50936;51.660;5.616;2023-08-08T03:37:37;3.15;;;1.88;;
64543;SDS011;50936;51.660;5.616;2023-08-08T03:40:04;3.05;;;1.70;;
64543;SDS011;50936;51.660;5.616;2023-08-08T03:42:34;3.25;;;1.75;;
64543;SDS011;50936;51.660;5.616;2023-08-08T03:45:01;3.55;;;1.60;;
64543;SDS011;50936;51.660;5.616;2023-08-08T03:47:29;3.28;;;1.77;;
64543;SDS011;50936;51.660;5.616;2023-08-08T03:49:56;3.15;;;1.60;;
64543;SDS011;50936;51.660;5.616;2023-08-08T03:52:24;5.13;;;1.70;;
64543;SDS011;50936;51.660;5.616;2023-08-08T03:54:51;3.53;;;1.60;;
64543;SDS011;50936;51.660;5.616;2023-08-08T03:57:21;2.50;;;1.48;;
64543;SDS011;50936;51.660;5.616;2023-08-08T03:59:48;3.00;;;1.77;;
64543;SDS011;50936;51.660;5.616;2023-08-08T04:02:15;3.97;;;1.77;;
64543;SDS011;50936;51.660;5.616;2023-08-08T04:04:42;3.17;;;1.65;;
64543;SDS011;50936;51.660;5.616;2023-08-08T04:07:08;2.97;;;1.60;;
64543;SDS011;50936;51.660;5.616;2023-08-08T04:09:35;3.88;;;1.52;;
64543;SDS011;50936;51.660;5.616;2023-08-08T04:12:02;3.35;;;1.85;;
64543;SDS011;50936;51.660;5.616;2023-08-08T04:14:30;3.47;;;1.80;;
64543;SDS011;50936;51.660;5.616;2023-08-08T04:16:58;4.38;;;2.10;;
64543;SDS011;50936;51.660;5.616;2023-08-08T04:19:25;2.88;;;1.70;;
64543;SDS011;50936;51.660;5.616;2023-08-08T04:21:52;4.47;;;1.70;;
64543;SDS011;50936;51.660;5.616;2023-08-08T04:24:18;4.20;;;1.98;;
64543;SDS011;50936;51.660;5.616;2023-08-08T04:26:45;3.83;;;1.60;;
64543;SDS011;50936;51.660;5.616;2023-08-08T04:29:12;3.03;;;1.70;;
64543;SDS011;50936;51.660;5.616;2023-08-08T04:31:39;3.38;;;1.77;;
64543;SDS011;50936;51.660;5.616;2023-08-08T04:34:06;4.00;;;2.00;;
64543;SDS011;50936;51.660;5.616;2023-08-08T04:36:33;3.58;;;1.73;;
64543;SDS011;50936;51.660;5.616;2023-08-08T04:39:00;4.18;;;1.73;;
64543;SDS011;50936;51.660;5.616;2023-08-08T04:41:27;3.42;;;1.55;;
64543;SDS011;50936;51.660;5.616;2023-08-08T04:43:55;5.05;;;1.65;;
64543;SDS011;50936;51.660;5.616;2023-08-08T04:46:22;4.00;;;1.80;;
64543;SDS011;50936;51.660;5.616;2023-08-08T04:48:49;2.92;;;1.77;;
64543;SDS011;50936;51.660;5.616;2023-08-08T04:51:16;3.60;;;1.85;;
64543;SDS011;50936;51.660;5.616;2023-08-08T04:53:43;3.38;;;1.80;;
64543;SDS011;50936;51.660;5.616;2023-08-08T04:56:10;4.07;;;1.70;;
64543;SDS011;50936;51.660;5.616;2023-08-08T04:58:37;3.75;;;1.92;;
64543;SDS011;50936;51.660;5.616;2023-08-08T05:01:04;3.22;;;1.70;;
64543;SDS011;50936;51.660;5.616;2023-08-08T05:03:31;3.90;;;1.60;;
64543;SDS011;50936;51.660;5.616;2023-08-08T05:05:58;3.15;;;1.88;;
64543;SDS011;50936;51.660;5.616;2023-08-08T05:08:26;4.35;;;1.80;;
64543;SDS011;50936;51.660;5.616;2023-08-08T05:10:53;5.07;;;1.73;;
64543;SDS011;50936;51.660;5.616;2023-08-08T05:13:20;6.22;;;1.98;;
64543;SDS011;50936;51.660;5.616;2023-08-08T05:15:46;2.78;;;1.70;;
64543;SDS011;50936;51.660;5.616;2023-08-08T05:18:13;5.13;;;1.98;;
64543;SDS011;50936;51.660;5.616;2023-08-08T05:20:40;8.30;;;1.60;;
64543;SDS011;50936;51.660;5.616;2023-08-08T05:23:07;3.75;;;1.80;;
64543;SDS011;50936;51.660;5.616;2023-08-08T05:25:34;3.88;;;1.80;;
64543;SDS011;50936;51.660;5.616;2023-08-08T05:28:01;4.05;;;1.70;;
64543;SDS011;50936;51.660;5.616;2023-08-08T05:30:29;4.32;;;2.05;;
64543;SDS011;50936;51.660;5.616;2023-08-08T05:32:56;4.20;;;1.70;;
64543;SDS011;50936;51.660;5.616;2023-08-08T05:35:23;4.55;;;1.90;;
64543;SDS011;50936;51.660;5.616;2023-08-08T05:37:50;5.03;;;2.10;;
64543;SDS011;50936;51.660;5.616;2023-08-08T05:40:17;3.95;;;1.90;;
64543;SDS011;50936;51.660;5.616;2023-08-08T05:42:44;4.75;;;1.75;;
64543;SDS011;50936;51.660;5.616;2023-08-08T05:45:11;4.75;;;1.92;;
64543;SDS011;50936;51.660;5.616;2023-08-08T05:47:38;3.65;;;1.67;;
64543;SDS011;50936;51.660;5.616;2023-08-08T05:50:05;5.28;;;1.80;;
64543;SDS011;50936;51.660;5.616;2023-08-08T05:52:33;4.97;;;1.90;;
64543;SDS011;50936;51.660;5.616;2023-08-08T05:55:00;4.68;;;1.95;;
64543;SDS011;50936;51.660;5.616;2023-08-08T05:57:27;3.53;;;1.77;;
64543;SDS011;50936;51.660;5.616;2023-08-08T05:59:54;4.15;;;1.60;;
64543;SDS011;50936;51.660;5.616;2023-08-08T06:02:21;4.28;;;1.80;;
64543;SDS011;50936;51.660;5.616;2023-08-08T06:04:48;3.67;;;1.67;;
64543;SDS011;50936;51.660;5.616;2023-08-08T06:07:15;6.78;;;1.70;;
64543;SDS011;50936;51.660;5.616;2023-08-08T06:09:42;6.25;;;2.13;;
64543;SDS011;50936;51.660;5.616;2023-08-08T06:12:09;5.25;;;2.10;;
64543;SDS011;50936;51.660;5.616;2023-08-08T06:14:36;4.85;;;1.92;;
64543;SDS011;50936;51.660;5.616;2023-08-08T06:17:03;3.55;;;1.52;;
64543;SDS011;50936;51.660;5.616;2023-08-08T06:19:30;3.50;;;1.63;;
64543;SDS011;50936;51.660;5.616;2023-08-08T06:21:57;3.72;;;1.88;;
64543;SDS011;50936;51.660;5.616;2023-08-08T06:24:25;5.10;;;1.85;;
64543;SDS011;50936;51.660;5.616;2023-08-08T06:26:52;4.13;;;1.95;;
64543;SDS011;50936;51.660;5.616;2023-08-08T06:29:19;5.30;;;2.05;;
64543;SDS011;50936;51.660;5.616;2023-08-08T06:31:46;3.30;;;1.77;;
64543;SDS011;50936;51.660;5.616;2023-08-08T06:34:13;6.32;;;2.15;;
64543;SDS011;50936;51.660;5.616;2023-08-08T06:36:40;4.55;;;1.90;;
64543;SDS011;50936;51.660;5.616;2023-08-08T06:39:07;7.28;;;2.00;;
64543;SDS011;50936;51.660;5.616;2023-08-08T06:41:35;4.50;;;2.00;;
64543;SDS011;50936;51.660;5.616;2023-08-08T06:44:01;6.72;;;2.15;;
64543;SDS011;50936;51.660;5.616;2023-08-08T06:46:29;6.63;;;2.05;;
64543;SDS011;50936;51.660;5.616;2023-08-08T06:48:55;6.85;;;2.13;;
64543;SDS011;50936;51.660;5.616;2023-08-08T06:51:25;5.75;;;1.92;;
64543;SDS011;50936;51.660;5.616;2023-08-08T06:53:52;6.30;;;1.92;;
64543;SDS011;50936;51.660;5.616;2023-08-08T06:56:20;5.35;;;2.03;;
64543;SDS011;50936;51.660;5.616;2023-08-08T06:58:47;5.57;;;2.15;;
64543;SDS011;50936;51.660;5.616;2023-08-08T07:01:14;6.90;;;2.28;;
64543;SDS011;50936;51.660;5.616;2023-08-08T07:03:41;4.80;;;2.00;;
64543;SDS011;50936;51.660;5.616;2023-08-08T07:06:08;5.80;;;1.85;;
64543;SDS011;50936;51.660;5.616;2023-08-08T07:08:36;7.13;;;2.03;;
64543;SDS011;50936;51.660;5.616;2023-08-08T07:11:05;7.22;;;2.42;;
64543;SDS011;50936;51.660;5.616;2023-08-08T07:13:33;8.20;;;2.88;;
64543;SDS011;50936;51.660;5.616;2023-08-08T07:16:00;9.73;;;3.15;;
64543;SDS011;50936;51.660;5.616;2023-08-08T07:18:27;15.20;;;3.70;;
64543;SDS011;50936;51.660;5.616;2023-08-08T07:20:54;19.92;;;5.43;;
64543;SDS011;50936;51.660;5.616;2023-08-08T07:23:23;59.83;;;13.48;;
64543;SDS011;50936;51.660;5.616;2023-08-08T07:25:50;66.35;;;14.07;;
64543;SDS011;50936;51.660;5.616;2023-08-08T07:28:17;75.30;;;15.55;;
64543;SDS011;50936;51.660;5.616;2023-08-08T07:30:44;56.33;;;13.80;;
64543;SDS011;50936;51.660;5.616;2023-08-08T07:33:11;47.80;;;11.23;;
64543;SDS011;50936;51.660;5.616;2023-08-08T07:35:40;42.72;;;10.07;;
64543;SDS011;50936;51.660;5.616;2023-08-08T07:38:07;49.33;;;11.68;;
64543;SDS011;50936;51.660;5.616;2023-08-08T07:40:34;52.35;;;11.63;;
64543;SDS011;50936;51.660;5.616;2023-08-08T07:43:01;47.28;;;11.68;;
64543;SDS011;50936;51.660;5.616;2023-08-08T07:45:28;43.38;;;10.73;;
64543;SDS011;50936;51.660;5.616;2023-08-08T07:47:55;58.08;;;12.43;;
64543;SDS011;50936;51.660;5.616;2023-08-08T07:50:22;42.72;;;11.52;;
64543;SDS011;50936;51.660;5.616;2023-08-08T07:52:49;41.17;;;10.70;;
64543;SDS011;50936;51.660;5.616;2023-08-08T07:55:16;48.03;;;11.02;;
64543;SDS011;50936;51.660;5.616;2023-08-08T07:57:43;45.88;;;10.57;;
64543;SDS011;50936;51.660;5.616;2023-08-08T08:00:10;40.38;;;10.38;;
64543;SDS011;50936;51.660;5.616;2023-08-08T08:02:42;43.97;;;10.73;;
64543;SDS011;50936;51.660;5.616;2023-08-08T08:05:11;47.13;;;10.18;;
64543;SDS011;50936;51.660;5.616;2023-08-08T08:07:40;44.55;;;10.30;;
64543;SDS011;50936;51.660;5.616;2023-08-08T08:10:08;43.35;;;9.43;;
64543;SDS011;50936;51.660;5.616;2023-08-08T08:12:37;41.40;;;10.57;;
64543;SDS011;50936;51.660;5.616;2023-08-08T08:15:04;36.03;;;10.07;;
64543;SDS011;50936;51.660;5.616;2023-08-08T08:17:32;44.92;;;10.30;;
64543;SDS011;50936;51.660;5.616;2023-08-08T08:19:59;37.13;;;10.43;;
64543;SDS011;50936;51.660;5.616;2023-08-08T08:22:26;36.45;;;9.35;;
64543;SDS011;50936;51.660;5.616;2023-08-08T08:24:53;35.38;;;8.90;;
64543;SDS011;50936;51.660;5.616;2023-08-08T08:27:20;35.47;;;9.30;;
64543;SDS011;50936;51.660;5.616;2023-08-08T08:29:47;35.78;;;9.23;;
64543;SDS011;50936;51.660;5.616;2023-08-08T08:32:14;36.20;;;8.77;;
64543;SDS011;50936;51.660;5.616;2023-08-08T08:34:41;33.90;;;9.38;;
64543;SDS011;50936;51.660;5.616;2023-08-08T08:37:08;35.67;;;9.23;;
64543;SDS011;50936;51.660;5.616;2023-08-08T08:39:35;31.65;;;8.63;;
64543;SDS011;50936;51.660;5.616;2023-08-08T08:42:02;30.30;;;8.38;;
64543;SDS011;50936;51.660;5.616;2023-08-08T08:44:33;30.73;;;8.93;;
64543;SDS011;50936;51.660;5.616;2023-08-08T08:47:02;28.95;;;8.70;;
64543;SDS011;50936;51.660;5.616;2023-08-08T08:49:37;25.83;;;7.28;;
64543;SDS011;50936;51.660;5.616;2023-08-08T08:52:08;31.25;;;7.93;;
64543;SDS011;50936;51.660;5.616;2023-08-08T08:54:35;28.48;;;7.55;;
64543;SDS011;50936;51.660;5.616;2023-08-08T08:57:03;29.50;;;7.63;;
64543;SDS011;50936;51.660;5.616;2023-08-08T08:59:30;22.20;;;7.05;;
64543;SDS011;50936;51.660;5.616;2023-08-08T09:01:57;28.45;;;7.22;;
64543;SDS011;50936;51.660;5.616;2023-08-08T09:04:27;27.40;;;7.80;;
64543;SDS011;50936;51.660;5.616;2023-08-08T09:06:56;26.65;;;7.13;;
64543;SDS011;50936;51.660;5.616;2023-08-08T09:09:24;27.90;;;7.45;;
64543;SDS011;50936;51.660;5.616;2023-08-08T09:11:52;23.25;;;7.82;;
64543;SDS011;50936;51.660;5.616;2023-08-08T09:14:24;24.38;;;7.60;;
64543;SDS011;50936;51.660;5.616;2023-08-08T09:16:53;25.38;;;7.70;;
64543;SDS011;50936;51.660;5.616;2023-08-08T09:19:21;26.92;;;7.30;;
64543;SDS011;50936;51.660;5.616;2023-08-08T09:21:49;27.02;;;7.50;;
64543;SDS011;50936;51.660;5.616;2023-08-08T09:24:18;27.30;;;7.45;;
64543;SDS011;50936;51.660;5.616;2023-08-08T09:26:46;25.92;;;6.90;;
64543;SDS011;50936;51.660;5.616;2023-08-08T09:29:13;25.35;;;6.97;;
64543;SDS011;50936;51.660;5.616;2023-08-08T09:31:41;24.42;;;7.28;;
64543;SDS011;50936;51.660;5.616;2023-08-08T09:34:09;20.67;;;6.68;;
64543;SDS011;50936;51.660;5.616;2023-08-08T09:36:36;18.17;;;5.28;;
64543;SDS011;50936;51.660;5.616;2023-08-08T09:39:03;15.77;;;5.97;;
64543;SDS011;50936;51.660;5.616;2023-08-08T09:41:31;17.40;;;5.13;;
64543;SDS011;50936;51.660;5.616;2023-08-08T09:43:59;23.52;;;6.35;;
64543;SDS011;50936;51.660;5.616;2023-08-08T09:46:28;17.77;;;6.30;;
64543;SDS011;50936;51.660;5.616;2023-08-08T09:48:57;20.70;;;6.63;;
64543;SDS011;50936;51.660;5.616;2023-08-08T09:51:25;20.30;;;6.30;;
64543;SDS011;50936;51.660;5.616;2023-08-08T09:53:53;20.20;;;6.28;;
64543;SDS011;50936;51.660;5.616;2023-08-08T09:56:25;21.90;;;6.30;;
64543;SDS011;50936;51.660;5.616;2023-08-08T09:58:54;15.55;;;5.40;;
64543;SDS011;50936;51.660;5.616;2023-08-08T10:01:23;14.32;;;4.50;;
64543;SDS011;50936;51.660;5.616;2023-08-08T10:03:53;14.63;;;4.93;;
64543;SDS011;50936;51.660;5.616;2023-08-08T10:06:20;16.65;;;5.43;;
64543;SDS011;50936;51.660;5.616;2023-08-08T10:08:47;20.50;;;6.20;;
64543;SDS011;50936;51.660;5.616;2023-08-08T10:11:14;19.33;;;7.07;;
64543;SDS011;50936;51.660;5.616;2023-08-08T10:13:49;27.98;;;8.43;;
64543;SDS011;50936;51.660;5.616;2023-08-08T10:16:17;32.53;;;9.40;;
64543;SDS011;50936;51.660;5.616;2023-08-08T10:18:45;27.95;;;9.35;;
64543;SDS011;50936;51.660;5.616;2023-08-08T10:21:23;39.97;;;10.90;;
64543;SDS011;50936;51.660;5.616;2023-08-08T10:24:00;35.63;;;10.40;;
64543;SDS011;50936;51.660;5.616;2023-08-08T10:26:33;35.90;;;12.05;;
64543;SDS011;50936;51.660;5.616;2023-08-08T10:29:18;46.60;;;12.68;;
64543;SDS011;50936;51.660;5.616;2023-08-08T10:31:52;33.92;;;11.32;;
64543;SDS011;50936;51.660;5.616;2023-08-08T10:34:42;33.40;;;12.15;;
64543;SDS011;50936;51.660;5.616;2023-08-08T10:37:12;30.38;;;10.88;;
64543;SDS011;50936;51.660;5.616;2023-08-08T10:39:50;35.60;;;12.50;;
64543;SDS011;50936;51.660;5.616;2023-08-08T10:42:24;35.22;;;11.70;;
64543;SDS011;50936;51.660;5.616;2023-08-08T10:44:54;32.20;;;10.93;;
64543;SDS011;50936;51.660;5.616;2023-08-08T10:47:31;33.47;;;10.95;;
64543;SDS011;50936;51.660;5.616;2023-08-08T10:50:06;28.45;;;11.23;;
64543;SDS011;50936;51.660;5.616;2023-08-08T10:52:51;31.50;;;10.45;;
64543;SDS011;50936;51.660;5.616;2023-08-08T10:55:22;35.60;;;10.65;;
64543;SDS011;50936;51.660;5.616;2023-08-08T10:57:59;29.23;;;10.57;;
64543;SDS011;50936;51.660;5.616;2023-08-08T11:00:31;32.08;;;9.73;;
64543;SDS011;50936;51.660;5.616;2023-08-08T11:03:02;31.85;;;11.05;;
64543;SDS011;50936;51.660;5.616;2023-08-08T11:05:33;30.60;;;9.85;;
64543;SDS011;50936;51.660;5.616;2023-08-08T11:08:03;26.05;;;9.68;;
64543;SDS011;50936;51.660;5.616;2023-08-08T11:10:35;29.33;;;9.45;;
64543;SDS011;50936;51.660;5.616;2023-08-08T11:13:05;26.88;;;9.32;;
64543;SDS011;50936;51.660;5.616;2023-08-08T11:15:35;26.80;;;8.98;;
64543;SDS011;50936;51.660;5.616;2023-08-08T11:18:05;23.35;;;8.57;;
64543;SDS011;50936;51.660;5.616;2023-08-08T11:20:33;23.77;;;8.38;;
64543;SDS011;50936;51.660;5.616;2023-08-08T11:23:02;24.83;;;8.88;;
64543;SDS011;50936;51.660;5.616;2023-08-08T11:25:32;20.80;;;7.88;;
64543;SDS011;50936;51.660;5.616;2023-08-08T11:27:59;23.15;;;8.20;;
64543;SDS011;50936;51.660;5.616;2023-08-08T11:30:28;23.88;;;8.05;;
64543;SDS011;50936;51.660;5.616;2023-08-08T11:32:59;22.45;;;7.82;;
64543;SDS011;50936;51.660;5.616;2023-08-08T11:35:29;22.75;;;7.63;;
64543;SDS011;50936;51.660;5.616;2023-08-08T11:37:57;22.70;;;8.00;;
64543;SDS011;50936;51.660;5.616;2023-08-08T11:40:26;19.13;;;7.50;;
64543;SDS011;50936;51.660;5.616;2023-08-08T11:42:56;22.17;;;7.70;;
64543;SDS011;50936;51.660;5.616;2023-08-08T11:45:25;18.58;;;6.93;;
64543;SDS011;50936;51.660;5.616;2023-08-08T11:47:53;20.02;;;7.00;;
64543;SDS011;50936;51.660;5.616;2023-08-08T11:50:23;22.35;;;6.72;;
64543;SDS011;50936;51.660;5.616;2023-08-08T11:52:52;18.50;;;6.45;;
64543;SDS011;50936;51.660;5.616;2023-08-08T11:55:27;19.17;;;6.50;;
64543;SDS011;50936;51.660;5.616;2023-08-08T11:57:56;18.27;;;6.57;;
64543;SDS011;50936;51.660;5.616;2023-08-08T12:00:27;14.52;;;5.80;;
64543;SDS011;50936;51.660;5.616;2023-08-08T12:02:57;18.77;;;6.05;;
64543;SDS011;50936;51.660;5.616;2023-08-08T12:05:27;14.32;;;5.25;;
64543;SDS011;50936;51.660;5.616;2023-08-08T12:07:54;13.88;;;5.90;;
64543;SDS011;50936;51.660;5.616;2023-08-08T12:10:22;16.35;;;5.85;;
64543;SDS011;50936;51.660;5.616;2023-08-08T12:12:54;13.82;;;5.22;;
64543;SDS011;50936;51.660;5.616;2023-08-08T12:15:29;13.25;;;5.30;;
64543;SDS011;50936;51.660;5.616;2023-08-08T12:18:02;16.65;;;5.80;;
64543;SDS011;50936;51.660;5.616;2023-08-08T12:20:30;11.90;;;5.00;;
64543;SDS011;50936;51.660;5.616;2023-08-08T12:22:58;15.85;;;4.88;;
64543;SDS011;50936;51.660;5.616;2023-08-08T12:25:26;17.27;;;5.68;;
64543;SDS011;50936;51.660;5.616;2023-08-08T12:27:53;13.82;;;5.15;;
64543;SDS011;50936;51.660;5.616;2023-08-08T12:30:21;16.60;;;5.22;;
64543;SDS011;50936;51.660;5.616;2023-08-08T12:32:48;16.35;;;5.45;;
64543;SDS011;50936;51.660;5.616;2023-08-08T12:35:15;15.95;;;4.93;;
64543;SDS011;50936;51.660;5.616;2023-08-08T12:37:43;13.10;;;4.40;;
64543;SDS011;50936;51.660;5.616;2023-08-08T12:40:10;14.85;;;4.93;;
64543;SDS011;50936;51.660;5.616;2023-08-08T12:42:38;19.95;;;5.38;;
64543;SDS011;50936;51.660;5.616;2023-08-08T12:45:06;17.08;;;4.72;;
64543;SDS011;50936;51.660;5.616;2023-08-08T12:47:34;13.25;;;4.93;;
64543;SDS011;50936;51.660;5.616;2023-08-08T12:50:07;14.65;;;4.43;;
64543;SDS011;50936;51.660;5.616;2023-08-08T12:52:37;16.60;;;4.93;;
64543;SDS011;50936;51.660;5.616;2023-08-08T12:55:05;13.95;;;5.07;;
64543;SDS011;50936;51.660;5.616;2023-08-08T12:57:33;16.38;;;4.68;;
64543;SDS011;50936;51.660;5.616;2023-08-08T13:00:01;15.00;;;4.20;;
64543;SDS011;50936;51.660;5.616;2023-08-08T13:02:28;13.23;;;4.35;;
64543;SDS011;50936;51.660;5.616;2023-08-08T13:04:55;15.68;;;4.75;;
64543;SDS011;50936;51.660;5.616;2023-08-08T13:07:22;15.40;;;4.88;;
64543;SDS011;50936;51.660;5.616;2023-08-08T13:09:49;15.32;;;4.85;;
64543;SDS011;50936;51.660;5.616;2023-08-08T13:12:16;15.35;;;4.90;;
64543;SDS011;50936;51.660;5.616;2023-08-08T13:14:43;11.63;;;4.00;;
64543;SDS011;50936;51.660;5.616;2023-08-08T13:17:10;13.23;;;4.40;;
64543;SDS011;50936;51.660;5.616;2023-08-08T13:19:37;12.82;;;3.95;;
64543;SDS011;50936;51.660;5.616;2023-08-08T13:22:04;13.50;;;4.43;;
64543;SDS011;50936;51.660;5.616;2023-08-08T13:24:31;14.77;;;4.57;;
64543;SDS011;50936;51.660;5.616;2023-08-08T13:26:58;13.70;;;4.15;;
64543;SDS011;50936;51.660;5.616;2023-08-08T13:29:25;12.77;;;3.92;;
64543;SDS011;50936;51.660;5.616;2023-08-08T13:31:52;11.27;;;4.10;;
64543;SDS011;50936;51.660;5.616;2023-08-08T13:34:19;12.77;;;3.88;;
64543;SDS011;50936;51.660;5.616;2023-08-08T13:36:46;12.75;;;3.72;;
64543;SDS011;50936;51.660;5.616;2023-08-08T13:39:13;15.20;;;3.95;;
64543;SDS011;50936;51.660;5.616;2023-08-08T13:41:40;13.07;;;4.10;;
64543;SDS011;50936;51.660;5.616;2023-08-08T13:44:07;11.35;;;3.58;;
64543;SDS011;50936;51.660;5.616;2023-08-08T13:46:34;8.43;;;3.22;;
64543;SDS011;50936;51.660;5.616;2023-08-08T13:49:01;12.00;;;3.75;;
64543;SDS011;50936;51.660;5.616;2023-08-08T13:51:28;11.88;;;3.58;;
64543;SDS011;50936;51.660;5.616;2023-08-08T13:53:55;12.50;;;4.13;;
64543;SDS011;50936;51.660;5.616;2023-08-08T13:56:22;8.30;;;3.00;;
64543;SDS011;50936;51.660;5.616;2023-08-08T13:58:49;12.70;;;3.50;;
64543;SDS011;50936;51.660;5.616;2023-08-08T14:01:16;8.52;;;2.83;;
64543;SDS011;50936;51.660;5.616;2023-08-08T14:03:43;8.57;;;3.25;;
64543;SDS011;50936;51.660;5.616;2023-08-08T14:06:10;8.25;;;2.78;;
64543;SDS011;50936;51.660;5.616;2023-08-08T14:08:37;11.90;;;3.58;;
64543;SDS011;50936;51.660;5.616;2023-08-08T14:11:04;12.57;;;3.55;;
64543;SDS011;50936;51.660;5.616;2023-08-08T14:13:31;17.20;;;3.25;;
64543;SDS011;50936;51.660;5.616;2023-08-08T14:15:59;21.00;;;3.88;;
64543;SDS011;50936;51.660;5.616;2023-08-08T14:18:26;8.52;;;2.85;;
64543;SDS011;50936;51.660;5.616;2023-08-08T14:20:53;11.85;;;3.42;;
64543;SDS011;50936;51.660;5.616;2023-08-08T14:23:20;12.55;;;3.10;;
64543;SDS011;50936;51.660;5.616;2023-08-08T14:25:48;16.50;;;4.22;;
64543;SDS011;50936;51.660;5.616;2023-08-08T14:28:15;15.20;;;3.13;;
64543;SDS011;50936;51.660;5.616;2023-08-08T14:30:42;17.52;;;3.45;;
64543;SDS011;50936;51.660;5.616;2023-08-08T14:33:09;15.13;;;3.35;;
64543;SDS011;50936;51.660;5.616;2023-08-08T14:35:36;12.70;;;3.28;;
64543;SDS011;50936;51.660;5.616;2023-08-08T14:38:03;15.60;;;3.67;;
64543;SDS011;50936;51.660;5.616;2023-08-08T14:40:30;14.68;;;3.58;;
64543;SDS011;50936;51.660;5.616;2023-08-08T14:43:01;13.02;;;2.78;;
64543;SDS011;50936;51.660;5.616;2023-08-08T14:45:28;16.65;;;3.03;;
64543;SDS011;50936;51.660;5.616;2023-08-08T14:47:56;11.73;;;3.10;;
64543;SDS011;50936;51.660;5.616;2023-08-08T14:50:23;13.25;;;2.95;;